Time;durP1;ratioP1;P1;durP2;ratioP2;P2;SDS_P1;SDS_P2;PMS_P1;PMS_P2;Temp;Humidity;BMP_temperature;BMP_pressure;BME280_temperature;BME280_humidity;BME280_pressure;Samples;Min_cycle;Max_cycle;Signal;HPM_P1;HPM_P2
2022/02/10 00:04:45;;;;;;;0.50;0.50;;;;;;;-0.89;100.00;101779.28;4991682;28;20037;-88
2022/02/10 00:07:35;;;;;;;0.50;0.50;;;;;;;-0.67;100.00;101772.91;4989733;28;20169;-86
2022/02/10 00:20:42;;;;;;;0.40;0.40;;;;;;;-0.25;100.00;101747.81;4986202;28;20133;-87
2022/02/10 00:23:40;;;;;;;0.50;0.50;;;;;;;-0.35;100.00;101749.25;4971733;28;20030;-87
2022/02/10 00:34:13;;;;;;;0.50;0.50;;;;;;;-0.92;100.00;101755.69;4970096;28;20050;-87
2022/02/10 00:36:44;;;;;;;0.50;0.50;;;;;;;-0.98;100.00;101768.31;4974753;28;20571;-87
2022/02/10 00:39:42;;;;;;;0.40;0.40;;;;;;;-1.05;100.00;101759.88;4969847;28;20030;-86
2022/02/10 00:41:58;;;;;;;0.50;0.50;;;;;;;-1.20;100.00;101761.47;4971483;28;20064;-88
2022/02/10 00:44:24;;;;;;;0.50;0.50;;;;;;;-1.29;100.00;101754.00;4989476;28;20364;-85
2022/02/10 00:46:50;;;;;;;0.50;0.50;;;;;;;-1.31;100.00;101760.28;4991586;28;20025;-87
2022/02/10 00:49:16;;;;;;;0.50;0.50;;;;;;;-1.43;100.00;101749.41;4990496;28;20067;-87
2022/02/10 00:51:41;;;;;;;0.50;0.50;;;;;;;-1.38;100.00;101763.22;4973963;28;20083;-87
2022/02/10 00:54:09;;;;;;;0.50;0.50;;;;;;;-1.37;100.00;101751.75;4991381;28;20030;-87
2022/02/10 00:56:34;;;;;;;0.50;0.50;;;;;;;-1.39;100.00;101750.97;4957195;28;20266;-87
2022/02/10 00:59:12;;;;;;;0.40;0.40;;;;;;;-1.45;100.00;101745.13;4990338;28;20033;-88
2022/02/10 01:10:24;;;;;;;0.50;0.50;;;;;;;-1.71;100.00;101743.75;4972186;28;20468;-88
2022/02/10 01:12:48;;;;;;;0.50;0.50;;;;;;;-1.69;100.00;101749.78;4985709;28;20033;-87
2022/02/10 01:31:57;;;;;;;0.50;0.50;;;;;;;-0.89;100.00;101752.03;4985576;28;20041;-85
2022/02/10 01:34:23;;;;;;;0.50;0.50;;;;;;;-1.00;100.00;101749.94;4988989;28;20033;-85
2022/02/10 01:36:49;;;;;;;0.50;0.50;;;;;;;-1.14;100.00;101755.03;4973133;28;20065;-86
2022/02/10 01:39:20;;;;;;;0.50;0.50;;;;;;;-1.23;100.00;101743.16;4972424;28;20468;-86
2022/02/10 01:58:38;;;;;;;0.50;0.50;;;;;;;-1.44;100.00;101723.94;4984694;28;20476;-86
2022/02/10 02:03:50;;;;;;;0.50;0.50;;;;;;;-1.71;100.00;101704.19;4995577;28;20434;-86
2022/02/10 02:06:23;;;;;;;0.50;0.50;;;;;;;-1.50;100.00;101712.84;4989962;28;20080;-86
2022/02/10 02:08:50;;;;;;;0.50;0.50;;;;;;;-1.13;100.00;101728.56;4962332;28;20042;-86
2022/02/10 02:11:15;;;;;;;0.50;0.50;;;;;;;-0.97;100.00;101702.25;4992059;28;20060;-86
2022/02/10 02:13:41;;;;;;;0.50;0.50;;;;;;;-0.93;100.00;101724.94;4974571;28;20037;-85
2022/02/10 02:16:07;;;;;;;0.50;0.50;;;;;;;-1.00;100.00;101728.81;4979582;28;20033;-85
2022/02/10 02:18:33;;;;;;;0.50;0.50;;;;;;;-1.19;100.00;101730.66;4993421;28;20549;-85
2022/02/10 02:20:59;;;;;;;0.50;0.50;;;;;;;-1.27;100.00;101730.16;4957056;28;20155;-83
2022/02/10 02:23:27;;;;;;;0.50;0.50;;;;;;;-1.49;100.00;101719.81;5000756;28;20042;-86
2022/02/10 02:26:07;;;;;;;0.50;0.50;;;;;;;-1.69;100.00;101728.69;4991008;28;20469;-85
2022/02/10 02:28:37;;;;;;;0.50;0.50;;;;;;;-1.89;100.00;101733.13;4984870;28;20038;-86
2022/02/10 02:31:07;;;;;;;0.40;0.40;;;;;;;-1.96;100.00;101718.50;4977941;28;20033;-86
2022/02/10 03:06:20;;;;;;;0.50;0.50;;;;;;;-0.98;100.00;101736.63;4946458;28;22069;-86
2022/02/10 03:08:56;;;;;;;0.50;0.50;;;;;;;-1.03;100.00;101744.81;4959302;28;20038;-86
2022/02/10 03:11:24;;;;;;;0.50;0.50;;;;;;;-1.15;100.00;101726.94;4961637;28;20053;-84
2022/02/10 03:16:56;;;;;;;0.50;0.50;;;;;;;-1.17;100.00;101734.06;4994339;28;20045;-85
2022/02/10 04:13:52;;;;;;;0.50;0.50;;;;;;;-0.99;100.00;101729.66;4976451;28;20042;-86
2022/02/10 04:16:23;;;;;;;0.50;0.50;;;;;;;-1.00;100.00;101726.16;4958598;28;20061;-85
2022/02/10 05:31:18;;;;;;;0.50;0.50;;;;;;;-0.05;100.00;101758.19;5005503;28;20037;-83
2022/02/10 05:33:17;;;;;;;0.50;0.50;;;;;;;0.75;100.00;101769.63;4990438;28;20041;-84
2022/02/10 06:50:38;;;;;;;0.50;0.50;;;;;;;-1.67;100.00;101766.38;5009543;28;20036;-86
2022/02/10 06:53:26;;;;;;;0.50;0.50;;;;;;;-1.58;100.00;101790.56;4980260;28;20041;-83
2022/02/10 07:14:41;;;;;;;6.13;1.08;;;;;;;-0.44;100.00;101816.66;4985760;28;20038;-85
2022/02/10 08:28:57;;;;;;;0.50;0.50;;;;;;;0.33;100.00;101876.94;4990345;28;20042;-84
2022/02/10 09:03:45;;;;;;;0.50;0.50;;;;;;;2.15;100.00;101905.38;4975824;28;20052;-86
2022/02/10 09:25:43;;;;;;;0.50;0.50;;;;;;;2.72;100.00;101927.56;4984319;28;20046;-85
2022/02/10 10:02:12;;;;;;;0.70;0.70;;;;;;;10.04;82.67;101945.44;5004370;28;20033;-84
2022/02/10 10:04:52;;;;;;;0.70;0.70;;;;;;;10.73;80.77;101941.59;4967877;28;20481;-86
2022/02/10 10:07:31;;;;;;;0.70;0.70;;;;;;;11.08;79.46;101930.09;4967456;28;20068;-84
2022/02/10 10:11:08;;;;;;;0.80;0.80;;;;;;;11.79;78.25;101940.06;4977923;28;20033;-84
2022/02/10 10:23:54;;;;;;;0.82;0.82;;;;;;;13.49;73.30;101937.66;5000131;28;20046;-84
2022/02/10 10:56:53;;;;;;;0.95;0.95;;;;;;;15.19;67.55;101977.38;4978561;28;20513;-85
2022/02/10 11:39:07;;;;;;;15.27;2.25;;;;;;;12.35;76.95;102018.06;4984349;28;20038;-85
2022/02/10 11:41:43;;;;;;;9.55;2.38;;;;;;;12.74;77.04;102010.44;4991402;28;20085;-85
2022/02/10 12:43:48;;;;;;;4.75;1.40;;;;;;;7.01;98.19;102042.94;4978973;28;20623;-84
2022/02/10 13:23:22;;;;;;;9.02;2.20;;;;;;;11.56;83.89;102049.28;4996247;28;20034;-85
2022/02/10 14:18:30;;;;;;;2.47;1.70;;;;;;;14.76;49.41;102062.66;4994634;28;20076;-87
2022/02/10 14:21:03;;;;;;;6.32;1.17;;;;;;;16.48;44.51;102024.63;4979584;28;20044;-84
2022/02/10 14:25:40;;;;;;;13.17;1.70;;;;;;;18.13;39.99;102036.06;4982553;28;20034;-87
2022/02/10 14:26:43;;;;;;;5.75;1.88;;;;;;;19.53;37.17;102065.13;4987309;28;20030;-87
2022/02/10 14:29:09;;;;;;;7.03;2.30;;;;;;;19.70;37.21;102070.25;4975186;28;20097;-87
2022/02/10 14:31:34;;;;;;;5.20;1.77;;;;;;;19.99;34.66;102069.94;4965159;28;20030;-86
2022/02/10 14:34:01;;;;;;;10.15;2.20;;;;;;;19.25;34.92;102059.75;4953898;28;20036;-85
2022/02/10 14:36:32;;;;;;;5.43;1.30;;;;;;;19.00;35.40;102047.63;4976903;28;20038;-87
2022/02/10 15:16:10;;;;;;;4.28;1.25;;;;;;;12.17;45.82;102115.16;4991922;28;20184;-85
2022/02/10 16:14:28;;;;;;;6.10;2.78;;;;;;;4.89;97.97;102197.22;4975606;28;20043;-88
2022/02/10 16:18:51;;;;;;;5.20;2.00;;;;;;;5.04;99.99;102192.66;4986157;28;20038;-85
2022/02/10 16:21:35;;;;;;;4.18;2.30;;;;;;;5.03;100.00;102196.31;5000246;28;20091;-88
2022/02/10 16:24:13;;;;;;;3.70;1.85;;;;;;;5.02;100.00;102181.25;4976343;28;20047;-86
2022/02/10 16:26:52;;;;;;;5.90;3.28;;;;;;;4.93;100.00;102203.22;4990676;28;20037;-88
2022/02/10 16:29:19;;;;;;;6.88;2.35;;;;;;;4.71;100.00;102202.00;4991864;28;20095;-84
2022/02/10 16:31:45;;;;;;;3.78;2.10;;;;;;;4.77;100.00;102209.56;4990047;28;20102;-87
2022/02/10 16:34:12;;;;;;;7.30;3.95;;;;;;;4.70;100.00;102212.75;4969439;28;20142;-87
2022/02/10 16:36:39;;;;;;;5.82;3.35;;;;;;;4.49;100.00;102201.69;4996721;28;20522;-85
2022/02/10 16:39:07;;;;;;;8.30;4.18;;;;;;;4.53;100.00;102208.53;4986991;28;20029;-86
2022/02/10 16:41:33;;;;;;;8.65;1.90;;;;;;;4.53;100.00;102221.84;4957851;28;20045;-85
2022/02/10 16:43:59;;;;;;;6.05;2.75;;;;;;;4.32;100.00;102218.78;4969485;28;20116;-85
2022/02/10 16:46:25;;;;;;;3.03;1.80;;;;;;;4.09;100.00;102218.44;4974443;28;20135;-86
2022/02/10 16:48:51;;;;;;;9.13;1.60;;;;;;;3.82;100.00;102213.06;4976820;28;22017;-85
2022/02/10 16:51:19;;;;;;;6.00;1.95;;;;;;;3.56;100.00;102203.19;4973043;28;20133;-86
2022/02/10 16:53:50;;;;;;;4.40;1.20;;;;;;;3.41;100.00;102181.91;4989952;28;20030;-85
2022/02/10 16:56:24;;;;;;;6.97;1.17;;;;;;;4.13;100.00;102227.94;4957312;28;20030;-86
2022/02/10 16:59:08;;;;;;;;;;;;;;;4.89;100.00;102228.34;4960598;28;20042;-88
2022/02/10 17:17:42;;;;;;;17.00;8.95;;;;;;;4.56;100.00;102235.81;4974652;28;20554;-84
2022/02/10 17:25:27;;;;;;;10.18;4.00;;;;;;;4.05;100.00;102251.53;4994098;28;20575;-84
2022/02/10 17:28:00;;;;;;;19.60;6.65;;;;;;;3.83;100.00;102238.72;4998255;28;20116;-85
2022/02/10 17:35:47;;;;;;;8.23;2.30;;;;;;;3.56;100.00;102259.88;4972627;28;20045;-87
2022/02/10 17:44:08;;;;;;;29.27;9.50;;;;;;;2.40;100.00;102270.22;4992332;28;20657;-87
2022/02/10 17:54:31;;;;;;;20.27;7.68;;;;;;;1.11;100.00;102266.44;4977114;28;20030;-85
2022/02/10 17:56:57;;;;;;;22.42;8.02;;;;;;;1.16;100.00;102280.31;4967391;28;20111;-83
2022/02/10 17:59:23;;;;;;;19.20;8.45;;;;;;;1.21;100.00;102288.88;4972200;28;20065;-85
2022/02/10 18:01:50;;;;;;;16.42;6.32;;;;;;;1.16;100.00;102285.63;4960000;28;20042;-83
2022/02/10 18:04:17;;;;;;;23.42;8.32;;;;;;;0.71;100.00;102219.91;4992006;28;20030;-84
2022/02/10 18:06:46;;;;;;;26.40;11.85;;;;;;;1.09;100.00;102293.03;4971238;28;20018;-85
2022/02/10 18:19:48;;;;;;;19.50;9.10;;;;;;;0.69;100.00;102312.69;4989600;28;20180;-83
2022/02/10 18:27:25;;;;;;;46.38;16.52;;;;;;;0.70;100.00;102309.09;4971901;28;20137;-84
2022/02/10 19:09:38;;;;;;;7.63;4.07;;;;;;;0.49;100.00;102360.41;4992174;28;20045;-84
2022/02/10 19:12:14;;;;;;;19.38;4.57;;;;;;;0.41;100.00;102371.34;4975498;28;20477;-85
2022/02/10 19:14:39;;;;;;;11.75;5.40;;;;;;;0.18;100.00;102367.94;4994501;28;20554;-84
2022/02/10 19:17:05;;;;;;;21.50;6.72;;;;;;;0.20;100.00;102354.66;4990749;28;20030;-85
2022/02/10 19:19:31;;;;;;;17.50;6.80;;;;;;;0.15;100.00;102356.63;4990379;28;20034;-86
2022/02/10 19:21:57;;;;;;;19.02;7.10;;;;;;;0.07;100.00;102367.56;4960178;28;20092;-84
2022/02/10 19:24:23;;;;;;;17.75;6.85;;;;;;;-0.10;100.00;102378.03;4992663;28;20037;-84
2022/02/10 19:26:51;;;;;;;14.68;9.05;;;;;;;-0.39;100.00;102348.44;5005094;28;20499;-84
2022/02/10 19:29:21;;;;;;;21.90;12.55;;;;;;;-0.57;100.00;102350.06;4977590;28;20030;-84
2022/02/10 19:31:48;;;;;;;45.53;18.98;;;;;;;-0.81;100.00;102335.25;4958956;28;20084;-83
2022/02/10 19:34:14;;;;;;;25.95;11.88;;;;;;;-0.51;100.00;102388.59;4990336;28;20498;-85
2022/02/10 19:36:39;;;;;;;45.30;19.42;;;;;;;-0.43;100.00;102383.84;4974845;28;20067;-85
2022/02/10 19:39:05;;;;;;;33.95;16.58;;;;;;;-0.66;100.00;102334.63;4995782;28;20029;-85
2022/02/10 19:41:35;;;;;;;27.90;10.82;;;;;;;-0.53;100.00;102362.25;4992024;28;20038;-87
2022/02/10 19:44:02;;;;;;;23.25;10.93;;;;;;;-0.16;100.00;102410.91;4957949;28;20036;-83
2022/02/10 19:46:28;;;;;;;138.98;39.05;;;;;;;-0.20;100.00;102396.06;4986335;28;20168;-84
2022/02/10 19:48:54;;;;;;;82.43;29.58;;;;;;;-0.42;100.00;102345.03;4992895;28;20040;-86
2022/02/10 19:51:20;;;;;;;45.83;16.27;;;;;;;-0.11;100.00;102406.25;4994054;28;20041;-85
2022/02/10 19:53:47;;;;;;;19.58;9.45;;;;;;;-0.22;100.00;102393.47;4975874;28;20041;-84
2022/02/10 19:56:14;;;;;;;32.50;13.52;;;;;;;-0.42;100.00;102366.19;4978395;28;20037;-85
2022/02/10 19:58:40;;;;;;;14.77;8.05;;;;;;;-0.12;100.00;102395.75;4997999;28;20069;-85
2022/02/10 20:01:06;;;;;;;25.02;9.80;;;;;;;-0.08;100.00;102402.59;4980504;28;20413;-85
2022/02/10 20:03:33;;;;;;;33.10;16.67;;;;;;;-0.19;100.00;102403.06;4974730;28;20567;-86
2022/02/10 20:06:02;;;;;;;18.30;8.07;;;;;;;-0.31;100.00;102407.13;4977856;28;20443;-83
2022/02/10 20:08:28;;;;;;;22.42;7.13;;;;;;;-0.63;100.00;102376.75;4973860;28;20048;-85
2022/02/10 20:10:55;;;;;;;18.33;6.38;;;;;;;-0.60;100.00;102402.19;4993909;28;20192;-84
2022/02/10 20:13:22;;;;;;;14.82;7.60;;;;;;;-0.79;100.00;102412.66;5000491;28;20026;-84
2022/02/10 20:15:50;;;;;;;20.30;7.43;;;;;;;-1.16;100.00;102382.44;4975907;28;20431;-85
2022/02/10 20:18:20;;;;;;;14.93;6.63;;;;;;;-1.08;100.00;102419.94;4974606;28;20392;-84
2022/02/10 20:20:47;;;;;;;11.02;6.07;;;;;;;-1.29;100.00;102392.59;5000962;28;20034;-83
2022/02/10 20:23:14;;;;;;;38.40;17.85;;;;;;;-1.33;100.00;102404.19;4960996;28;20143;-85
2022/02/10 20:25:40;;;;;;;33.13;14.57;;;;;;;-1.14;100.00;102425.44;4974355;28;20022;-86
2022/02/10 20:28:09;;;;;;;32.97;14.98;;;;;;;-1.39;100.00;102375.41;4961762;28;20037;-85
2022/02/10 20:30:35;;;;;;;39.88;14.93;;;;;;;-1.24;100.00;102400.34;4978925;28;20129;-85
2022/02/10 20:33:01;;;;;;;24.17;12.05;;;;;;;-1.34;100.00;102399.84;4961412;28;20381;-84
2022/02/10 20:35:27;;;;;;;27.05;10.48;;;;;;;-1.39;100.00;102401.78;4993637;28;20084;-85
2022/02/10 20:37:59;;;;;;;22.13;8.23;;;;;;;-1.46;100.00;102398.50;4961237;28;20168;-84
2022/02/10 20:40:25;;;;;;;19.13;7.68;;;;;;;-1.47;100.00;102395.94;4956146;28;20129;-86
2022/02/10 20:42:50;;;;;;;34.13;9.90;;;;;;;-1.46;100.00;102405.56;4990653;28;20462;-84
2022/02/10 20:45:16;;;;;;;24.70;10.05;;;;;;;-1.91;100.00;102351.81;4983834;28;20060;-84
2022/02/10 20:47:42;;;;;;;16.10;7.13;;;;;;;-1.59;100.00;102407.78;4974442;28;20491;-85
2022/02/10 20:50:08;;;;;;;33.38;10.00;;;;;;;-1.77;100.00;102393.53;4976435;28;20048;-85
2022/02/10 20:52:34;;;;;;;36.28;9.82;;;;;;;-1.74;100.00;102413.66;4977706;28;20046;-85
2022/02/10 20:54:59;;;;;;;23.85;8.90;;;;;;;-1.74;100.00;102418.94;4958620;28;20392;-85
2022/02/10 20:57:26;;;;;;;20.60;8.35;;;;;;;-1.95;100.00;102408.22;4977140;28;20045;-85
2022/02/10 20:59:53;;;;;;;23.35;10.73;;;;;;;-2.09;100.00;102394.66;4990308;28;20133;-84
2022/02/10 21:02:28;;;;;;;21.23;10.02;;;;;;;-1.81;100.00;102431.47;4991004;28;20037;-85
2022/02/10 21:04:58;;;;;;;32.60;14.13;;;;;;;-1.96;100.00;102395.09;4979978;28;20414;-84
2022/02/10 21:10:05;;;;;;;33.55;15.35;;;;;;;-2.17;100.00;102392.31;4991755;28;20131;-84
2022/02/10 21:12:36;;;;;;;34.95;15.82;;;;;;;-1.93;100.00;102426.63;4957247;28;20511;-85
2022/02/10 21:15:06;;;;;;;30.60;11.70;;;;;;;-2.04;100.00;102417.34;4977741;28;20029;-85
2022/02/10 21:17:31;;;;;;;31.67;13.82;;;;;;;-1.96;100.00;102432.84;5000423;28;20057;-85
2022/02/10 21:20:01;;;;;;;28.20;13.52;;;;;;;-1.97;100.00;102439.06;4974541;28;20035;-85
2022/02/10 21:22:28;;;;;;;36.15;13.55;;;;;;;-1.96;100.00;102439.91;4964946;28;20038;-84
2022/02/10 21:25:05;;;;;;;28.98;12.88;;;;;;;-2.32;100.00;102395.47;4984418;28;20045;-84
2022/02/10 21:27:40;;;;;;;30.33;13.82;;;;;;;-2.06;100.00;102442.88;4976990;28;20036;-86
2022/02/10 21:30:08;;;;;;;26.75;12.05;;;;;;;-2.13;100.00;102443.13;4966333;28;20033;-84
2022/02/10 21:32:39;;;;;;;29.90;11.85;;;;;;;-2.24;100.00;102454.03;4982636;28;20064;-82
2022/02/10 21:38:08;;;;;;;23.23;10.13;;;;;;;-2.35;100.00;102450.91;4937371;28;20526;-81
2022/02/10 21:41:24;;;;;;;27.50;10.20;;;;;;;-2.49;100.00;102439.06;4995210;28;20038;-82
2022/02/10 21:59:50;;;;;;;35.08;14.52;;;;;;;-2.74;100.00;102486.38;5002647;28;20113;-80
2022/02/10 22:18:50;;;;;;;16.15;8.20;;;;;;;-2.75;100.00;102489.94;4991807;28;20029;-80
2022/02/10 22:21:31;;;;;;;21.67;8.55;;;;;;;-2.90;100.00;102475.44;4992022;28;20068;-82
2022/02/10 22:23:58;;;;;;;14.15;6.07;;;;;;;-2.92;100.00;102479.03;4980247;28;20061;-84
2022/02/10 22:26:27;;;;;;;20.75;8.43;;;;;;;-2.91;100.00;102486.91;4994217;28;20546;-82
2022/02/10 22:29:04;;;;;;;19.30;7.93;;;;;;;-2.98;100.00;102487.97;4997998;28;20025;-84
2022/02/10 22:34:23;;;;;;;16.88;7.20;;;;;;;-1.96;100.00;102500.53;4976865;28;20038;-85
2022/02/10 22:36:55;;;;;;;14.23;7.07;;;;;;;-1.88;100.00;102504.66;4981330;28;20030;-83
2022/02/10 22:39:21;;;;;;;21.48;9.18;;;;;;;-1.99;100.00;102509.41;4967304;28;20053;-82
2022/02/10 22:41:47;;;;;;;17.23;7.68;;;;;;;-2.19;100.00;102519.78;4969446;28;20037;-82
2022/02/10 22:44:16;;;;;;;23.00;8.85;;;;;;;-2.44;100.00;102508.22;4997984;28;20034;-81
2022/02/10 22:46:42;;;;;;;16.25;8.40;;;;;;;-2.61;100.00;102510.56;5000518;28;20069;-80
2022/02/10 22:49:08;;;;;;;24.35;10.43;;;;;;;-2.73;100.00;102508.28;4958773;28;20037;-81
2022/02/10 22:51:34;;;;;;;17.20;9.25;;;;;;;-2.74;100.00;102507.44;4984155;28;20405;-82
2022/02/10 22:54:01;;;;;;;18.20;8.73;;;;;;;-2.73;100.00;102497.75;4987362;28;20648;-80
2022/02/10 22:56:30;;;;;;;24.52;9.02;;;;;;;-2.72;100.00;102505.63;4987187;28;20112;-81
2022/02/10 22:58:59;;;;;;;20.45;9.57;;;;;;;-2.84;100.00;102500.72;4989486;28;20046;-82
2022/02/10 23:01:25;;;;;;;21.52;11.23;;;;;;;-2.85;100.00;102514.81;4981132;28;20100;-81
2022/02/10 23:03:51;;;;;;;26.33;11.52;;;;;;;-2.90;100.00;102504.41;4951842;28;20348;-85
2022/02/10 23:06:17;;;;;;;36.53;14.88;;;;;;;-2.99;100.00;102509.97;5011143;28;20083;-80
2022/02/10 23:08:43;;;;;;;29.88;12.57;;;;;;;-3.05;100.00;102522.41;4989476;28;20506;-81
2022/02/10 23:11:14;;;;;;;23.45;12.25;;;;;;;-3.12;100.00;102517.34;4977733;28;20480;-81
2022/02/10 23:13:44;;;;;;;21.42;11.52;;;;;;;-3.02;100.00;102527.59;4988730;28;20045;-82
2022/02/10 23:16:14;;;;;;;31.40;10.70;;;;;;;-2.97;100.00;102530.94;5003370;28;20040;-79
2022/02/10 23:18:41;;;;;;;27.95;10.98;;;;;;;-2.91;100.00;102515.84;5002936;28;20030;-81
2022/02/10 23:21:10;;;;;;;23.40;10.65;;;;;;;-2.81;100.00;102526.09;4987271;28;20125;-81
2022/02/10 23:23:37;;;;;;;17.73;8.30;;;;;;;-2.88;100.00;102526.28;4994858;28;20041;-81
2022/02/10 23:26:05;;;;;;;20.70;7.55;;;;;;;-2.94;100.00;102525.59;5004995;28;20034;-80
2022/02/10 23:28:36;;;;;;;19.92;7.80;;;;;;;-2.90;100.00;102540.41;4975063;28;20034;-80
2022/02/10 23:31:04;;;;;;;20.35;8.35;;;;;;;-2.93;100.00;102536.09;4977356;28;20029;-82
2022/02/10 23:33:33;;;;;;;19.98;9.00;;;;;;;-3.09;100.00;102516.41;4993852;28;20040;-82
2022/02/10 23:38:49;;;;;;;24.25;9.57;;;;;;;-3.20;100.00;102523.72;4990748;28;20030;-81
2022/02/10 23:44:01;;;;;;;20.85;8.50;;;;;;;-3.29;100.00;102532.75;4975474;28;20090;-81
2022/02/10 23:46:27;;;;;;;16.02;7.25;;;;;;;-3.32;100.00;102527.56;4986501;28;20061;-83
2022/02/10 23:48:55;;;;;;;18.70;7.75;;;;;;;-3.31;100.00;102529.28;5005536;28;20099;-80
2022/02/10 23:51:24;;;;;;;19.73;8.88;;;;;;;-3.29;100.00;102540.63;4962730;28;20036;-83
2022/02/10 23:53:50;;;;;;;22.00;10.38;;;;;;;-3.42;100.00;102531.34;4983363;28;20034;-80
2022/02/10 23:56:18;;;;;;;14.93;7.28;;;;;;;-3.43;100.00;102533.13;4951343;28;20033;-80
